Time;durP1;ratioP1;P1;durP2;ratioP2;P2;SDS_P1;SDS_P2;PMS_P1;PMS_P2;Temp;Humidity;BMP_temperature;BMP_pressure;BME280_temperature;BME280_humidity;BME280_pressure;Samples;Min_cycle;Max_cycle;Signal;HPM_P1;HPM_P2
2022/11/03 00:01:47;;;;;;;1.80;1.20;;;19.50;65.00;;;;;;4972210;28;44441;-62
2022/11/03 00:04:16;;;;;;;2.47;1.30;;;19.40;65.00;;;;;;4981221;28;43985;-62
2022/11/03 00:06:46;;;;;;;1.75;1.08;;;19.40;65.00;;;;;;4972612;28;43431;-62
2022/11/03 00:09:16;;;;;;;1.83;1.10;;;19.40;65.00;;;;;;4976415;28;43518;-62
2022/11/03 00:11:45;;;;;;;1.95;1.10;;;19.50;65.60;;;;;;4974315;28;44832;-62
2022/11/03 00:14:14;;;;;;;1.92;1.13;;;19.40;65.60;;;;;;4974990;28;43966;-62
2022/11/03 00:16:42;;;;;;;3.50;1.40;;;19.40;64.90;;;;;;4971167;28;43751;-62
2022/11/03 00:19:10;;;;;;;1.42;1.10;;;19.40;65.00;;;;;;4971795;28;43587;-62
2022/11/03 00:21:38;;;;;;;1.40;1.27;;;19.40;64.90;;;;;;4974498;28;44318;-62
2022/11/03 00:24:05;;;;;;;1.77;1.15;;;19.40;65.00;;;;;;4973736;28;43660;-62
2022/11/03 00:26:34;;;;;;;2.00;1.20;;;19.40;64.90;;;;;;4971059;28;43499;-62
2022/11/03 00:29:13;;;;;;;1.65;1.08;;;19.40;65.00;;;;;;4975147;28;43504;-62
2022/11/03 00:31:43;;;;;;;1.80;1.10;;;19.40;65.00;;;;;;4977633;28;43955;-62
2022/11/03 00:34:11;;;;;;;3.38;1.60;;;19.40;64.90;;;;;;4976399;28;43467;-62
2022/11/03 00:36:41;;;;;;;1.45;1.10;;;19.40;65.00;;;;;;4973599;28;43437;-62
2022/11/03 00:39:09;;;;;;;1.80;1.38;;;19.40;65.00;;;;;;4977897;28;43476;-63
2022/11/03 00:41:37;;;;;;;1.60;1.15;;;19.40;64.90;;;;;;4977033;28;45256;-62
2022/11/03 00:44:05;;;;;;;1.52;1.10;;;19.40;64.90;;;;;;4975019;28;44450;-62
2022/11/03 00:46:34;;;;;;;2.00;1.20;;;19.30;64.90;;;;;;4973436;28;43502;-62
2022/11/03 00:49:03;;;;;;;1.30;1.20;;;19.30;64.90;;;;;;4972691;28;43515;-62
2022/11/03 00:51:33;;;;;;;3.15;1.50;;;19.30;64.90;;;;;;4976753;28;44660;-62
2022/11/03 00:54:02;;;;;;;2.42;1.23;;;19.30;64.90;;;;;;4973005;28;43535;-62
2022/11/03 00:56:32;;;;;;;2.53;1.38;;;19.30;65.00;;;;;;4974060;28;43523;-62
2022/11/03 00:59:01;;;;;;;2.50;1.30;;;19.30;65.00;;;;;;4977485;28;43551;-62
2022/11/03 01:01:31;;;;;;;2.03;1.13;;;19.30;65.00;;;;;;4981661;28;44664;-62
2022/11/03 01:06:49;;;;;;;2.42;1.35;;;19.30;65.00;;;;;;4972521;28;43453;-62
2022/11/03 01:09:30;;;;;;;2.63;1.40;;;19.30;65.00;;;;;;4976713;28;43435;-62
2022/11/03 01:11:59;;;;;;;2.70;1.00;;;19.30;65.00;;;;;;4973638;28;44067;-62
2022/11/03 01:14:30;;;;;;;1.25;1.13;;;19.30;65.00;;;;;;4975762;28;43807;-62
2022/11/03 01:16:57;;;;;;;;;;;19.30;65.00;;;;;;4978332;28;43444;-62
2022/11/03 01:19:25;;;;;;;2.33;1.40;;;19.30;65.00;;;;;;4979802;28;43642;-62
2022/11/03 01:21:53;;;;;;;1.50;1.00;;;19.20;65.00;;;;;;4973381;28;44087;-62
2022/11/03 01:24:21;;;;;;;2.30;1.25;;;19.30;65.00;;;;;;4976502;28;43399;-62
2022/11/03 01:26:49;;;;;;;2.17;1.35;;;19.20;65.00;;;;;;4976643;28;43396;-62
2022/11/03 01:29:17;;;;;;;2.17;1.30;;;19.30;65.00;;;;;;4974762;28;43586;-62
2022/11/03 01:31:45;;;;;;;2.22;1.30;;;19.20;64.90;;;;;;4973492;28;44979;-62
2022/11/03 01:34:18;;;;;;;2.72;1.40;;;19.20;65.00;;;;;;4972598;28;43784;-62
2022/11/03 01:36:46;;;;;;;1.77;1.08;;;19.20;65.00;;;;;;4976065;28;43462;-63
2022/11/03 01:39:16;;;;;;;4.28;1.65;;;19.20;64.90;;;;;;4973685;28;43422;-62
2022/11/03 01:41:46;;;;;;;2.53;1.10;;;19.20;65.00;;;;;;4973740;28;44948;-63
2022/11/03 01:44:14;;;;;;;2.25;1.60;;;19.20;65.00;;;;;;4976923;28;43757;-62
2022/11/03 01:46:46;;;;;;;1.30;1.17;;;19.20;65.00;;;;;;4976343;28;43597;-62
2022/11/03 01:49:21;;;;;;;2.40;1.13;;;19.20;65.00;;;;;;4979172;28;43527;-62
2022/11/03 01:51:54;;;;;;;2.88;1.40;;;19.20;64.90;;;;;;4975545;28;44155;-63
2022/11/03 01:54:25;;;;;;;2.60;1.40;;;19.20;65.00;;;;;;4975124;28;43799;-62
2022/11/03 01:56:53;;;;;;;2.65;1.50;;;19.20;65.00;;;;;;4974197;28;43422;-62
2022/11/03 01:59:22;;;;;;;2.00;1.27;;;19.20;65.00;;;;;;4972829;28;43618;-63
2022/11/03 02:01:50;;;;;;;2.97;1.50;;;19.20;65.00;;;;;;4971519;28;44068;-63
2022/11/03 02:04:31;;;;;;;1.83;1.10;;;19.10;64.90;;;;;;4975936;28;44018;-62
2022/11/03 02:07:21;;;;;;;1.40;1.20;;;19.10;64.90;;;;;;4978795;28;43412;-63
2022/11/03 02:09:49;;;;;;;2.35;1.50;;;19.10;64.90;;;;;;4971886;28;44101;-63
2022/11/03 02:12:20;;;;;;;2.25;1.40;;;19.10;65.00;;;;;;4975480;28;45004;-62
2022/11/03 02:15:09;;;;;;;2.88;1.40;;;19.10;64.90;;;;;;4977904;28;43950;-62
2022/11/03 02:17:38;;;;;;;1.40;1.20;;;19.10;64.90;;;;;;4976612;28;43511;-62
2022/11/03 02:20:13;;;;;;;2.33;1.40;;;19.10;65.00;;;;;;4982283;28;43562;-62
2022/11/03 02:23:05;;;;;;;2.00;1.40;;;19.10;65.00;;;;;;4977886;28;43834;-62
2022/11/03 02:25:41;;;;;;;2.53;1.23;;;19.10;65.00;;;;;;4970684;28;43433;-62
2022/11/03 02:28:09;;;;;;;1.88;1.40;;;19.10;65.00;;;;;;4972947;28;43472;-62
2022/11/03 02:31:01;;;;;;;1.80;1.50;;;19.10;65.00;;;;;;4971829;28;43633;-62
2022/11/03 02:33:40;;;;;;;3.20;1.42;;;19.10;65.00;;;;;;4974380;28;44038;-62
2022/11/03 02:36:14;;;;;;;2.17;1.30;;;19.10;65.00;;;;;;4972105;28;43777;-62
2022/11/03 02:38:53;;;;;;;2.95;1.45;;;19.10;65.00;;;;;;4972199;28;43488;-62
2022/11/03 02:41:21;;;;;;;2.22;1.20;;;19.10;65.00;;;;;;4976037;28;44324;-62
2022/11/03 02:43:49;;;;;;;1.55;1.20;;;19.10;65.00;;;;;;4974334;28;44693;-62
2022/11/03 02:46:18;;;;;;;2.47;1.25;;;19.10;65.00;;;;;;4971890;28;43533;-62
2022/11/03 02:48:47;;;;;;;1.83;1.10;;;19.00;65.00;;;;;;4973792;28;43449;-62
2022/11/03 02:51:15;;;;;;;2.28;1.30;;;19.10;65.00;;;;;;4974700;28;43571;-62
2022/11/03 02:53:57;;;;;;;1.80;1.30;;;19.10;65.00;;;;;;4974381;28;44674;-62
2022/11/03 02:56:25;;;;;;;1.73;1.23;;;19.00;64.90;;;;;;4969476;28;43448;-62
2022/11/03 02:59:05;;;;;;;2.05;1.52;;;19.00;64.90;;;;;;4975280;28;43436;-62
2022/11/03 03:01:47;;;;;;;1.95;1.40;;;19.00;64.90;;;;;;4972019;28;43634;-62
2022/11/03 03:04:19;;;;;;;1.73;1.27;;;19.00;64.90;;;;;;4971378;28;43802;-62
2022/11/03 03:07:03;;;;;;;1.33;1.23;;;19.00;64.90;;;;;;4970684;28;44140;-62
2022/11/03 03:09:43;;;;;;;3.08;1.40;;;19.00;64.90;;;;;;4971722;28;43497;-62
2022/11/03 03:12:13;;;;;;;1.60;1.30;;;19.00;64.90;;;;;;4972230;28;43423;-62
2022/11/03 03:14:44;;;;;;;2.08;1.27;;;19.00;65.00;;;;;;4975093;28;44151;-62
2022/11/03 03:17:23;;;;;;;2.05;1.00;;;19.00;64.90;;;;;;4974949;28;43988;-62
2022/11/03 03:20:27;;;;;;;1.80;1.33;;;19.00;64.90;;;;;;4981849;28;43576;-62
2022/11/03 03:23:12;;;;;;;1.80;1.10;;;19.00;64.90;;;;;;4975830;28;43640;-63
2022/11/03 03:25:45;;;;;;;2.83;1.48;;;18.90;64.90;;;;;;4976323;28;44673;-62
2022/11/03 03:28:30;;;;;;;2.42;1.20;;;19.00;65.00;;;;;;4974156;28;43536;-63
2022/11/03 03:31:01;;;;;;;2.25;1.58;;;18.90;65.50;;;;;;4974933;28;43441;-62
2022/11/03 03:33:30;;;;;;;1.70;1.17;;;18.90;65.00;;;;;;4978558;28;43610;-62
2022/11/03 03:36:00;;;;;;;1.90;1.50;;;18.90;65.00;;;;;;4974665;28;43935;-62
2022/11/03 03:38:34;;;;;;;2.40;1.30;;;18.90;64.90;;;;;;4975049;28;43808;-62
2022/11/03 03:41:03;;;;;;;2.95;1.55;;;18.90;64.90;;;;;;4976670;28;43405;-62
2022/11/03 03:43:37;;;;;;;2.40;1.17;;;18.90;64.90;;;;;;4971391;28;43500;-62
2022/11/03 03:46:09;;;;;;;2.45;1.50;;;18.90;64.90;;;;;;4974896;28;44013;-62
2022/11/03 03:48:36;;;;;;;3.08;1.35;;;18.90;64.90;;;;;;4975320;28;43886;-62
2022/11/03 03:51:05;;;;;;;2.05;1.35;;;18.90;64.90;;;;;;4971751;28;43548;-62
2022/11/03 03:53:33;;;;;;;2.17;1.27;;;18.90;64.90;;;;;;4971322;28;43448;-62
2022/11/03 03:56:00;;;;;;;1.55;1.13;;;18.90;64.90;;;;;;4974391;28;45128;-62
2022/11/03 03:58:28;;;;;;;1.95;1.20;;;18.90;64.90;;;;;;4973943;28;43445;-62
2022/11/03 04:00:55;;;;;;;2.25;1.55;;;18.90;64.90;;;;;;4972297;28;43548;-63
2022/11/03 04:03:25;;;;;;;2.20;1.30;;;18.90;64.90;;;;;;4975203;28;43563;-62
2022/11/03 04:05:55;;;;;;;2.35;1.30;;;18.90;64.90;;;;;;4977912;28;44049;-62
2022/11/03 04:08:22;;;;;;;1.98;1.55;;;18.90;64.90;;;;;;4977516;28;43656;-62
2022/11/03 04:24:46;;;;;;;2.53;1.30;;;18.90;65.00;;;;;;4979315;28;43550;-62
2022/11/03 04:27:30;;;;;;;2.38;1.30;;;18.80;64.90;;;;;;4977549;28;43920;-62
2022/11/03 04:30:18;;;;;;;2.45;1.40;;;18.80;64.90;;;;;;4977406;28;43798;-62
2022/11/03 04:32:50;;;;;;;2.08;1.30;;;18.80;64.90;;;;;;4977668;28;43496;-62
2022/11/03 04:35:27;;;;;;;3.45;1.70;;;18.80;64.90;;;;;;4977411;28;43535;-63
2022/11/03 04:38:15;;;;;;;3.42;1.50;;;18.80;64.90;;;;;;4974110;28;44025;-63
2022/11/03 04:41:02;;;;;;;1.92;1.23;;;18.80;65.00;;;;;;4974483;28;43728;-62
2022/11/03 04:43:34;;;;;;;2.17;1.30;;;18.80;65.00;;;;;;4976897;28;43769;-62
2022/11/03 04:46:02;;;;;;;2.50;1.52;;;18.80;65.00;;;;;;4975396;28;43546;-62
2022/11/03 04:48:30;;;;;;;2.13;1.40;;;18.80;65.00;;;;;;4975949;28;44778;-62
2022/11/03 04:50:59;;;;;;;2.65;1.52;;;18.80;65.00;;;;;;4977348;28;44009;-62
2022/11/03 04:53:30;;;;;;;2.22;1.40;;;18.80;65.00;;;;;;4977324;28;43445;-62
2022/11/03 04:55:59;;;;;;;1.88;1.27;;;18.80;65.00;;;;;;4973712;28;43535;-63
2022/11/03 04:58:34;;;;;;;2.15;1.20;;;18.80;65.00;;;;;;4975175;28;43765;-62
2022/11/03 05:01:03;;;;;;;1.75;1.27;;;18.80;65.00;;;;;;4977382;28;43428;-62
2022/11/03 05:03:36;;;;;;;2.08;1.30;;;18.80;65.00;;;;;;4975977;28;43432;-62
2022/11/03 05:06:21;;;;;;;3.55;1.52;;;18.80;65.00;;;;;;4973988;28;43539;-62
2022/11/03 05:08:52;;;;;;;2.38;1.40;;;18.80;65.00;;;;;;4972926;28;43885;-62
2022/11/03 05:11:40;;;;;;;2.03;1.58;;;18.80;65.00;;;;;;4976321;28;43964;-62
2022/11/03 05:14:35;;;;;;;2.75;1.50;;;18.80;65.00;;;;;;4973624;28;43405;-62
2022/11/03 05:17:14;;;;;;;1.80;1.33;;;18.80;65.00;;;;;;4976038;28;43487;-63
2022/11/03 05:19:43;;;;;;;2.72;1.50;;;18.80;65.00;;;;;;4978721;28;43819;-62
2022/11/03 05:22:20;;;;;;;2.35;1.50;;;18.70;65.60;;;;;;4975953;28;44170;-62
2022/11/03 05:24:55;;;;;;;1.83;1.38;;;18.70;64.90;;;;;;4976591;28;43382;-62
2022/11/03 05:27:23;;;;;;;2.83;1.38;;;18.70;64.90;;;;;;4973873;28;43559;-63
2022/11/03 05:29:53;;;;;;;2.50;1.40;;;18.70;65.00;;;;;;4973833;28;43820;-63
2022/11/03 05:32:32;;;;;;;2.22;1.33;;;18.70;65.00;;;;;;4976414;28;43984;-63
2022/11/03 05:35:00;;;;;;;1.67;1.27;;;18.70;65.00;;;;;;4975795;28;43390;-63
2022/11/03 05:37:32;;;;;;;1.80;1.40;;;18.80;65.10;;;;;;4973107;28;43459;-63
2022/11/03 05:40:09;;;;;;;1.98;1.45;;;18.80;65.10;;;;;;4976215;28;45109;-63
2022/11/03 05:42:41;;;;;;;1.55;1.42;;;18.70;65.10;;;;;;4976270;28;43516;-63
2022/11/03 05:45:23;;;;;;;1.83;1.38;;;18.70;65.10;;;;;;4973395;28;43420;-63
2022/11/03 05:47:54;;;;;;;2.13;1.58;;;18.70;65.10;;;;;;4975948;28;43554;-63
2022/11/03 05:50:24;;;;;;;2.85;1.20;;;18.70;65.10;;;;;;4976596;28;44119;-63
2022/11/03 05:53:11;;;;;;;3.30;1.60;;;18.70;65.10;;;;;;4973272;28;45050;-63
2022/11/03 05:55:39;;;;;;;2.50;1.38;;;18.70;65.10;;;;;;4973220;28;43470;-63
2022/11/03 05:58:37;;;;;;;1.77;1.40;;;18.70;65.10;;;;;;4976822;28;43495;-63
2022/11/03 06:01:24;;;;;;;1.77;1.45;;;18.70;65.10;;;;;;4977129;28;44991;-63
2022/11/03 06:03:52;;;;;;;1.90;1.13;;;18.70;65.10;;;;;;4976998;28;43548;-63
2022/11/03 06:06:19;;;;;;;2.10;1.20;;;18.70;65.10;;;;;;4976724;28;43390;-63
2022/11/03 06:08:48;;;;;;;2.35;1.50;;;18.70;65.00;;;;;;4974990;28;43428;-63
2022/11/03 06:11:27;;;;;;;1.98;1.20;;;18.70;65.00;;;;;;4975887;28;46046;-63
2022/11/03 06:13:57;;;;;;;2.42;1.73;;;18.70;65.00;;;;;;4979409;28;43513;-63
2022/11/03 06:16:51;;;;;;;1.50;1.10;;;18.70;65.00;;;;;;4974313;28;43420;-63
2022/11/03 06:19:25;;;;;;;2.63;1.55;;;18.70;65.00;;;;;;4978022;28;43543;-63
2022/11/03 06:21:57;;;;;;;1.65;1.30;;;18.70;65.00;;;;;;4974404;28;44945;-63
2022/11/03 06:24:30;;;;;;;2.38;1.23;;;18.80;65.00;;;;;;4971396;28;43356;-63
2022/11/03 06:26:58;;;;;;;1.60;1.13;;;18.70;64.90;;;;;;4979467;28;43960;-63
2022/11/03 06:29:25;;;;;;;2.75;1.60;;;18.70;65.00;;;;;;4981986;28;43520;-62
2022/11/03 06:31:56;;;;;;;1.90;1.25;;;18.70;65.00;;;;;;4975764;28;43905;-62
2022/11/03 06:34:43;;;;;;;;;;;18.70;65.10;;;;;;4978977;28;43528;-62
2022/11/03 06:37:24;;;;;;;1.70;1.10;;;18.70;65.10;;;;;;4978302;28;43400;-62
2022/11/03 06:40:00;;;;;;;2.28;1.30;;;18.70;65.10;;;;;;4972745;28;43504;-62
2022/11/03 06:42:32;;;;;;;3.42;1.10;;;18.70;65.10;;;;;;4971644;28;44036;-62
2022/11/03 06:45:01;;;;;;;1.42;1.17;;;18.70;65.10;;;;;;4977160;28;44028;-63
2022/11/03 06:47:28;;;;;;;1.92;1.42;;;18.70;65.10;;;;;;4979966;28;43404;-63
2022/11/03 06:49:58;;;;;;;2.38;1.20;;;18.70;65.10;;;;;;4972646;28;43689;-64
2022/11/03 06:52:31;;;;;;;2.42;1.40;;;18.70;65.10;;;;;;4976774;28;43785;-63
2022/11/03 06:55:10;;;;;;;1.65;1.20;;;18.70;65.20;;;;;;4977475;28;44132;-64
2022/11/03 06:57:45;;;;;;;2.15;1.60;;;18.70;65.10;;;;;;4976376;28;43525;-63
2022/11/03 07:00:23;;;;;;;1.42;1.20;;;18.70;65.10;;;;;;4972453;28;43410;-64
2022/11/03 07:03:36;;;;;;;3.15;1.30;;;18.70;65.20;;;;;;4974480;28;43945;-64
2022/11/03 07:06:10;;;;;;;2.30;1.60;;;18.70;65.20;;;;;;4977735;28;43819;-64
2022/11/03 07:08:49;;;;;;;2.05;1.30;;;18.70;65.30;;;;;;4980201;28;43527;-64
2022/11/03 07:11:24;;;;;;;2.40;1.20;;;18.70;65.20;;;;;;4975207;28;43572;-64
2022/11/03 07:13:55;;;;;;;1.80;1.30;;;18.70;65.30;;;;;;4971663;28;44024;-64
2022/11/03 07:16:32;;;;;;;;;;;18.70;65.20;;;;;;4978755;28;43356;-64
2022/11/03 07:19:02;;;;;;;2.72;1.30;;;18.60;65.20;;;;;;4980870;28;43941;-64
2022/11/03 07:21:50;;;;;;;1.60;1.20;;;18.60;65.20;;;;;;4971809;28;43465;-64
2022/11/03 07:24:24;;;;;;;2.05;1.20;;;18.60;65.20;;;;;;4975209;28;44079;-64
2022/11/03 07:27:20;;;;;;;1.95;1.25;;;18.60;65.30;;;;;;4978248;28;43404;-64
2022/11/03 07:29:50;;;;;;;2.92;1.40;;;18.60;65.30;;;;;;4979136;28;43503;-64
2022/11/03 07:32:23;;;;;;;1.40;1.30;;;18.60;65.30;;;;;;4974713;28;43609;-64
2022/11/03 07:35:09;;;;;;;2.38;1.35;;;18.60;65.30;;;;;;4975882;28;43886;-64
2022/11/03 07:37:37;;;;;;;2.15;1.45;;;18.60;65.30;;;;;;4970896;28;43864;-63
2022/11/03 07:40:11;;;;;;;2.38;1.52;;;18.60;65.30;;;;;;4968997;28;44043;-64
2022/11/03 07:42:38;;;;;;;1.95;1.35;;;18.60;65.30;;;;;;4974833;28;43492;-63
2022/11/03 07:45:37;;;;;;;2.47;1.50;;;18.60;65.30;;;;;;4972987;28;44066;-64
2022/11/03 07:48:44;;;;;;;2.63;1.52;;;18.60;65.30;;;;;;4974891;28;43928;-64
2022/11/03 07:51:32;;;;;;;1.73;1.50;;;18.60;65.40;;;;;;4969253;28;43467;-64
2022/11/03 07:54:12;;;;;;;1.83;1.40;;;18.60;65.40;;;;;;4972276;28;43589;-64
2022/11/03 07:56:48;;;;;;;1.20;1.10;;;18.60;65.30;;;;;;4976235;28;44001;-64
2022/11/03 07:59:20;;;;;;;2.92;1.42;;;18.60;65.40;;;;;;4970630;28;43398;-63
2022/11/03 08:01:52;;;;;;;3.17;1.30;;;18.60;65.30;;;;;;4975815;28;43448;-63
2022/11/03 08:04:27;;;;;;;1.55;1.10;;;18.60;65.30;;;;;;4977799;28;43463;-63
2022/11/03 08:06:55;;;;;;;1.98;1.30;;;18.60;65.30;;;;;;4969627;28;44126;-64
2022/11/03 08:09:22;;;;;;;1.98;1.33;;;18.60;65.40;;;;;;4976021;28;43449;-63
2022/11/03 08:11:50;;;;;;;1.30;1.20;;;18.60;65.30;;;;;;4980641;28;43931;-64
2022/11/03 08:14:18;;;;;;;3.35;1.40;;;18.60;65.30;;;;;;4972884;28;43625;-65
2022/11/03 08:16:45;;;;;;;5.25;3.40;;;18.60;65.40;;;;;;4970747;28;43766;-62
2022/11/03 08:19:12;;;;;;;5.85;3.00;;;18.60;65.50;;;;;;4977624;28;43972;-62
2022/11/03 08:21:40;;;;;;;6.85;3.40;;;18.60;65.70;;;;;;4974109;28;43432;-63
2022/11/03 08:24:07;;;;;;;5.38;3.20;;;18.60;65.60;;;;;;4971035;28;43626;-63
2022/11/03 08:26:35;;;;;;;5.53;3.90;;;18.60;65.70;;;;;;4970863;28;44213;-62
2022/11/03 08:29:02;;;;;;;6.22;3.58;;;18.70;65.80;;;;;;4978533;28;43491;-64
2022/11/03 08:31:30;;;;;;;5.05;4.15;;;18.70;65.60;;;;;;4973893;28;43440;-62
2022/11/03 08:33:57;;;;;;;4.55;3.40;;;18.80;65.50;;;;;;4977319;28;43587;-63
2022/11/03 08:36:24;;;;;;;5.80;3.50;;;18.80;65.40;;;;;;4970215;28;44780;-63
2022/11/03 08:38:52;;;;;;;5.68;3.53;;;18.90;65.40;;;;;;4979356;28;43526;-63
2022/11/03 08:41:19;;;;;;;5.25;3.10;;;18.90;65.30;;;;;;4980620;28;43427;-63
2022/11/03 08:43:47;;;;;;;4.32;3.15;;;19.00;65.30;;;;;;4973289;28;43504;-63
2022/11/03 08:46:14;;;;;;;5.38;2.72;;;19.10;65.10;;;;;;4973117;28;44010;-64
2022/11/03 08:48:45;;;;;;;6.43;2.88;;;19.20;65.10;;;;;;4982358;28;43953;-62
2022/11/03 08:51:14;;;;;;;5.00;2.42;;;19.20;65.00;;;;;;4976935;28;43480;-62
2022/11/03 08:53:42;;;;;;;3.42;2.60;;;19.30;64.90;;;;;;4975925;28;43473;-61
2022/11/03 08:56:10;;;;;;;4.03;3.03;;;19.40;64.80;;;;;;4977909;28;44964;-62
2022/11/03 08:58:40;;;;;;;;;;;19.40;64.70;;;;;;4977581;28;43448;-61
2022/11/03 09:01:07;;;;;;;3.72;2.15;;;19.50;64.60;;;;;;4977569;28;44038;-63
2022/11/03 09:03:35;;;;;;;3.67;2.42;;;19.60;64.80;;;;;;4973948;28;43432;-63
2022/11/03 09:06:02;;;;;;;3.45;2.38;;;19.70;64.40;;;;;;4981206;28;44714;-63
2022/11/03 09:08:30;;;;;;;3.78;2.38;;;19.90;64.20;;;;;;4980984;28;44076;-63
2022/11/03 09:11:17;;;;;;;4.03;2.00;;;20.00;64.00;;;;;;4974024;28;43579;-63
2022/11/03 09:13:45;;;;;;;2.92;2.10;;;20.10;63.70;;;;;;4978845;28;43504;-63
2022/11/03 09:16:12;;;;;;;2.60;2.00;;;20.20;63.50;;;;;;4982288;28;43856;-62
2022/11/03 09:18:40;;;;;;;2.75;2.00;;;20.30;63.30;;;;;;4976354;28;43481;-63
2022/11/03 09:21:07;;;;;;;5.15;2.47;;;20.30;63.20;;;;;;4975156;28;44011;-62
2022/11/03 09:23:35;;;;;;;6.25;1.98;;;20.40;63.20;;;;;;4977719;28;43556;-62
2022/11/03 09:26:04;;;;;;;3.65;2.22;;;20.50;63.20;;;;;;4983093;28;43887;-62
2022/11/03 09:28:32;;;;;;;3.22;1.80;;;20.50;63.10;;;;;;4976384;28;43487;-63
2022/11/03 09:30:59;;;;;;;3.80;1.80;;;20.60;63.00;;;;;;4975648;28;43423;-63
2022/11/03 09:33:27;;;;;;;3.15;1.92;;;20.70;62.90;;;;;;4976603;28;43628;-63
2022/11/03 09:35:54;;;;;;;3.70;2.20;;;20.90;62.80;;;;;;4977119;28;44053;-63
2022/11/03 09:38:21;;;;;;;4.07;1.70;;;21.00;62.50;;;;;;4976043;28;43906;-62
2022/11/03 09:40:49;;;;;;;3.15;1.70;;;21.10;62.30;;;;;;4975838;28;43406;-62
2022/11/03 09:43:17;;;;;;;1.90;1.60;;;21.20;62.20;;;;;;4978711;28;43600;-62
2022/11/03 09:45:44;;;;;;;3.10;1.90;;;21.20;62.00;;;;;;4976025;28;44675;-62
2022/11/03 09:48:12;;;;;;;3.00;1.65;;;21.40;61.90;;;;;;4979881;28;43650;-62
2022/11/03 09:50:40;;;;;;;2.60;1.85;;;21.40;61.80;;;;;;4975543;28;43430;-62
2022/11/03 09:53:13;;;;;;;3.47;1.77;;;21.40;61.60;;;;;;4980166;28;43591;-62
2022/11/03 09:55:40;;;;;;;1.80;1.50;;;21.40;61.50;;;;;;4981220;28;43795;-62
2022/11/03 09:58:16;;;;;;;3.92;2.70;;;21.50;61.50;;;;;;4975878;28;43700;-62
2022/11/03 10:00:44;;;;;;;3.17;2.15;;;21.40;61.60;;;;;;4974088;28;43460;-61
2022/11/03 10:03:14;;;;;;;3.63;2.00;;;21.50;61.70;;;;;;4983382;28;43442;-61
2022/11/03 10:05:44;;;;;;;3.63;2.50;;;21.50;61.70;;;;;;4972577;28;43733;-61
2022/11/03 10:08:30;;;;;;;2.38;2.13;;;21.50;61.80;;;;;;4976914;28;43476;-61
2022/11/03 10:10:59;;;;;;;3.65;2.45;;;21.60;61.80;;;;;;4982482;28;43581;-62
2022/11/03 10:13:32;;;;;;;3.83;2.08;;;21.70;61.90;;;;;;4975801;28;43686;-62
2022/11/03 10:16:05;;;;;;;4.10;2.38;;;21.80;61.80;;;;;;4975752;28;44627;-63
2022/11/03 10:18:34;;;;;;;3.17;2.10;;;21.90;61.60;;;;;;4980100;28;43484;-62
2022/11/03 10:21:27;;;;;;;3.80;2.20;;;21.90;61.50;;;;;;4981261;28;43446;-61
2022/11/03 10:23:54;;;;;;;3.28;2.00;;;21.90;61.40;;;;;;4977992;28;43768;-62
2022/11/03 10:26:22;;;;;;;3.35;2.20;;;22.00;61.40;;;;;;4972509;28;43938;-62
2022/11/03 10:28:58;;;;;;;2.35;1.73;;;22.00;61.50;;;;;;4979777;28;43810;-62
2022/11/03 10:31:40;;;;;;;2.25;2.00;;;22.10;61.50;;;;;;4974597;28;43479;-62
2022/11/03 10:34:23;;;;;;;2.95;2.00;;;22.10;61.10;;;;;;4972387;28;43509;-62
2022/11/03 10:37:11;;;;;;;3.35;2.03;;;22.10;61.00;;;;;;4979871;28;44044;-62
2022/11/03 10:39:38;;;;;;;3.90;1.70;;;22.10;61.00;;;;;;4981425;28;43425;-62
2022/11/03 10:42:25;;;;;;;2.80;2.20;;;22.20;61.10;;;;;;4971630;28;43452;-62
2022/11/03 10:45:16;;;;;;;2.22;1.70;;;22.20;61.00;;;;;;4975593;28;43626;-63
2022/11/03 10:47:58;;;;;;;1.67;1.58;;;22.20;61.00;;;;;;4975006;28;44790;-62
2022/11/03 10:50:27;;;;;;;1.77;1.60;;;22.20;61.10;;;;;;4980724;28;43595;-63
2022/11/03 10:52:55;;;;;;;2.00;1.73;;;22.20;61.10;;;;;;4981766;28;43500;-62
2022/11/03 10:55:24;;;;;;;2.42;1.80;;;22.20;61.10;;;;;;4980094;28;43686;-63
2022/11/03 10:57:56;;;;;;;2.38;1.65;;;22.20;61.10;;;;;;4977969;28;44317;-63
2022/11/03 11:00:24;;;;;;;3.65;1.70;;;22.20;61.20;;;;;;4978561;28;43733;-62
2022/11/03 11:02:57;;;;;;;2.83;1.60;;;22.20;61.10;;;;;;4979498;28;43542;-62
2022/11/03 11:05:26;;;;;;;2.20;1.58;;;22.20;61.10;;;;;;4983565;28;43708;-62
2022/11/03 11:07:54;;;;;;;1.92;1.60;;;22.20;61.30;;;;;;4981797;28;44733;-64
2022/11/03 11:10:24;;;;;;;1.40;1.30;;;22.20;61.10;;;;;;4981032;28;43417;-62
2022/11/03 11:13:17;;;;;;;2.30;1.40;;;22.10;61.20;;;;;;4981991;28;43426;-62
2022/11/03 11:15:46;;;;;;;1.25;1.15;;;22.10;61.30;;;;;;4978312;28;43516;-62
2022/11/03 11:18:37;;;;;;;2.85;1.40;;;22.10;61.40;;;;;;4979756;28;44711;-62
2022/11/03 11:21:16;;;;;;;2.90;1.40;;;22.20;61.30;;;;;;4956742;28;43807;-62
2022/11/03 11:23:45;;;;;;;1.73;1.50;;;22.10;61.30;;;;;;4980874;28;43532;-62
2022/11/03 11:26:19;;;;;;;2.53;1.50;;;22.10;61.50;;;;;;4960870;28;43503;-63
2022/11/03 11:29:14;;;;;;;2.08;1.48;;;22.10;61.60;;;;;;4981991;28;44069;-62
2022/11/03 11:31:43;;;;;;;2.42;1.50;;;22.10;61.50;;;;;;4980125;28;43553;-63
2022/11/03 11:34:19;;;;;;;3.10;1.48;;;22.10;61.50;;;;;;4981122;28;43357;-62
2022/11/03 11:36:54;;;;;;;3.03;1.58;;;22.10;61.50;;;;;;4979120;28;43400;-62
2022/11/03 11:39:29;;;;;;;1.60;1.50;;;22.10;61.50;;;;;;4980264;28;44134;-62
2022/11/03 11:42:06;;;;;;;2.28;1.75;;;22.10;61.60;;;;;;4982437;28;43440;-62
2022/11/03 11:44:48;;;;;;;2.40;1.70;;;22.10;61.60;;;;;;4979616;28;43450;-63
2022/11/03 11:47:22;;;;;;;2.08;1.50;;;22.10;61.70;;;;;;4981016;28;43630;-62
2022/11/03 11:50:05;;;;;;;3.20;1.45;;;22.10;61.70;;;;;;4981180;28;43804;-62
2022/11/03 11:52:47;;;;;;;2.65;1.50;;;22.10;61.70;;;;;;4977586;28;43487;-62
2022/11/03 11:55:33;;;;;;;2.50;1.60;;;22.10;61.80;;;;;;4976059;28;43452;-62
2022/11/03 11:58:50;;;;;;;1.40;1.30;;;22.10;61.80;;;;;;4978325;28;43393;-62
2022/11/03 12:01:17;;;;;;;1.77;1.40;;;22.00;61.80;;;;;;4967821;28;43896;-62
2022/11/03 12:03:46;;;;;;;1.77;1.50;;;22.00;62.00;;;;;;4978951;28;43364;-63
2022/11/03 12:06:14;;;;;;;2.00;1.48;;;22.00;62.00;;;;;;4972709;28;43388;-63
2022/11/03 12:08:42;;;;;;;1.77;1.50;;;22.00;62.00;;;;;;4978623;28;43428;-62
2022/11/03 12:11:13;;;;;;;2.08;1.42;;;22.00;62.10;;;;;;4979930;28;44073;-63
2022/11/03 12:13:50;;;;;;;2.92;1.73;;;22.00;62.10;;;;;;4975145;28;43495;-62
2022/11/03 12:16:36;;;;;;;2.92;1.50;;;22.00;62.20;;;;;;4972290;28;43408;-62
2022/11/03 12:19:35;;;;;;;2.20;1.60;;;22.00;62.10;;;;;;4977391;28;43423;-62
2022/11/03 12:22:11;;;;;;;2.38;1.58;;;22.00;62.20;;;;;;4979636;28;43888;-63
2022/11/03 12:25:02;;;;;;;1.92;1.48;;;21.90;62.20;;;;;;4984303;28;43416;-63
2022/11/03 12:27:30;;;;;;;1.83;1.50;;;21.90;62.30;;;;;;4976768;28;43458;-62
2022/11/03 12:30:01;;;;;;;2.08;1.45;;;21.90;62.30;;;;;;4981760;28;43458;-62
2022/11/03 12:32:29;;;;;;;2.03;1.38;;;21.90;62.40;;;;;;4975848;28;43978;-62
2022/11/03 12:35:04;;;;;;;2.00;1.30;;;21.90;62.60;;;;;;4981353;28;43485;-62
2022/11/03 12:37:31;;;;;;;2.40;1.40;;;21.90;62.40;;;;;;4981229;28;43474;-62
2022/11/03 12:39:59;;;;;;;1.75;1.30;;;21.90;62.30;;;;;;4983349;28;43600;-62
2022/11/03 12:42:26;;;;;;;1.92;1.52;;;21.90;62.30;;;;;;4983035;28;43787;-62
2022/11/03 12:44:54;;;;;;;2.33;1.52;;;21.90;62.10;;;;;;4982404;28;43505;-62
2022/11/03 12:47:22;;;;;;;2.25;1.40;;;21.90;62.10;;;;;;4983437;28;43362;-62
2022/11/03 12:49:49;;;;;;;2.78;1.45;;;21.90;62.20;;;;;;4983549;28;43484;-62
2022/11/03 12:52:17;;;;;;;1.45;1.02;;;21.80;62.10;;;;;;4985437;28;43822;-62
2022/11/03 12:54:44;;;;;;;2.28;1.17;;;21.80;62.10;;;;;;4980557;28;43435;-61
2022/11/03 12:57:12;;;;;;;3.65;1.65;;;21.80;62.20;;;;;;4981449;28;43486;-62
2022/11/03 12:59:40;;;;;;;1.85;1.20;;;21.80;62.20;;;;;;4980924;28;43579;-62
2022/11/03 13:02:09;;;;;;;2.90;1.33;;;21.80;62.30;;;;;;4980435;28;43754;-62
2022/11/03 13:04:38;;;;;;;2.20;1.50;;;21.80;62.30;;;;;;4983248;28;43393;-62
2022/11/03 13:07:05;;;;;;;2.30;1.40;;;21.80;62.40;;;;;;4984264;28;44143;-63
2022/11/03 13:09:34;;;;;;;2.95;1.60;;;21.80;62.40;;;;;;4983485;28;43471;-62
2022/11/03 13:14:48;;;;;;;1.90;1.30;;;21.70;62.50;;;;;;4980671;28;43699;-62
2022/11/03 13:17:16;;;;;;;3.50;1.45;;;21.70;62.60;;;;;;4980800;28;43457;-61
2022/11/03 13:19:43;;;;;;;3.30;1.65;;;21.60;62.60;;;;;;4980836;28;43499;-62
2022/11/03 13:22:10;;;;;;;1.85;1.27;;;21.70;62.80;;;;;;4981080;28;44211;-62
2022/11/03 13:24:39;;;;;;;2.40;1.40;;;21.70;63.00;;;;;;4984259;28;43374;-62
2022/11/03 13:27:06;;;;;;;1.73;1.25;;;21.70;62.90;;;;;;4984446;28;43448;-62
2022/11/03 13:29:35;;;;;;;2.75;1.50;;;21.60;62.80;;;;;;4983243;28;43502;-63
2022/11/03 13:32:03;;;;;;;2.90;1.67;;;21.60;62.50;;;;;;4983372;28;44684;-62
2022/11/03 13:34:30;;;;;;;2.28;1.15;;;21.60;62.80;;;;;;4981751;28;43596;-61
2022/11/03 13:36:58;;;;;;;4.07;1.58;;;21.60;63.00;;;;;;4980259;28;43363;-63
2022/11/03 13:39:26;;;;;;;2.63;1.33;;;21.60;63.30;;;;;;4981862;28;43416;-63